sensor_id;sensor_type;location;lat;lon;timestamp;P1;durP1;ratioP1;P2;durP2;ratioP2
77888;SDS011;67082;41.704;44.768;2023-06-19T00:01:21;5.15;;;3.00;;
77888;SDS011;67082;41.704;44.768;2023-06-19T00:03:53;5.82;;;2.95;;
77888;SDS011;67082;41.704;44.768;2023-06-19T00:06:21;9.75;;;2.95;;
77888;SDS011;67082;41.704;44.768;2023-06-19T00:08:49;5.18;;;2.88;;
77888;SDS011;67082;41.704;44.768;2023-06-19T00:11:17;7.28;;;3.15;;
77888;SDS011;67082;41.704;44.768;2023-06-19T00:13:45;4.68;;;2.78;;
77888;SDS011;67082;41.704;44.768;2023-06-19T00:16:14;5.50;;;3.00;;
77888;SDS011;67082;41.704;44.768;2023-06-19T00:18:42;4.80;;;3.03;;
77888;SDS011;67082;41.704;44.768;2023-06-19T00:21:10;7.53;;;3.25;;
77888;SDS011;67082;41.704;44.768;2023-06-19T00:23:39;4.15;;;2.90;;
77888;SDS011;67082;41.704;44.768;2023-06-19T00:26:08;4.43;;;3.00;;
77888;SDS011;67082;41.704;44.768;2023-06-19T00:28:36;4.45;;;2.75;;
77888;SDS011;67082;41.704;44.768;2023-06-19T00:31:06;6.18;;;3.28;;
77888;SDS011;67082;41.704;44.768;2023-06-19T00:33:34;6.03;;;2.85;;
77888;SDS011;67082;41.704;44.768;2023-06-19T00:36:06;4.88;;;3.15;;
77888;SDS011;67082;41.704;44.768;2023-06-19T00:38:40;6.50;;;2.97;;
77888;SDS011;67082;41.704;44.768;2023-06-19T00:41:09;5.70;;;3.10;;
77888;SDS011;67082;41.704;44.768;2023-06-19T00:43:38;5.47;;;3.17;;
77888;SDS011;67082;41.704;44.768;2023-06-19T00:46:07;5.65;;;3.30;;
77888;SDS011;67082;41.704;44.768;2023-06-19T00:48:35;5.80;;;2.90;;
77888;SDS011;67082;41.704;44.768;2023-06-19T00:51:03;6.95;;;2.80;;
77888;SDS011;67082;41.704;44.768;2023-06-19T00:53:32;5.55;;;3.22;;
77888;SDS011;67082;41.704;44.768;2023-06-19T00:56:03;4.30;;;3.00;;
77888;SDS011;67082;41.704;44.768;2023-06-19T00:58:31;7.45;;;4.10;;
77888;SDS011;67082;41.704;44.768;2023-06-19T01:01:00;18.50;;;3.10;;
77888;SDS011;67082;41.704;44.768;2023-06-19T01:06:10;6.93;;;3.20;;
77888;SDS011;67082;41.704;44.768;2023-06-19T01:08:45;5.95;;;3.03;;
77888;SDS011;67082;41.704;44.768;2023-06-19T01:11:28;4.60;;;2.88;;
77888;SDS011;67082;41.704;44.768;2023-06-19T01:14:03;4.43;;;3.13;;
77888;SDS011;67082;41.704;44.768;2023-06-19T01:16:36;5.25;;;3.15;;
77888;SDS011;67082;41.704;44.768;2023-06-19T01:19:05;5.35;;;3.10;;
77888;SDS011;67082;41.704;44.768;2023-06-19T01:21:40;5.13;;;2.90;;
77888;SDS011;67082;41.704;44.768;2023-06-19T01:24:08;5.78;;;2.85;;
77888;SDS011;67082;41.704;44.768;2023-06-19T01:26:38;5.88;;;3.22;;
77888;SDS011;67082;41.704;44.768;2023-06-19T01:29:07;5.70;;;3.10;;
77888;SDS011;67082;41.704;44.768;2023-06-19T01:31:38;8.55;;;2.97;;
77888;SDS011;67082;41.704;44.768;2023-06-19T01:34:23;7.05;;;3.10;;
77888;SDS011;67082;41.704;44.768;2023-06-19T01:36:55;5.68;;;3.00;;
77888;SDS011;67082;41.704;44.768;2023-06-19T01:39:24;7.53;;;3.35;;
77888;SDS011;67082;41.704;44.768;2023-06-19T01:41:54;7.40;;;3.53;;
77888;SDS011;67082;41.704;44.768;2023-06-19T01:44:23;5.78;;;2.80;;
77888;SDS011;67082;41.704;44.768;2023-06-19T01:46:52;6.43;;;3.30;;
77888;SDS011;67082;41.704;44.768;2023-06-19T01:49:20;6.35;;;2.92;;
77888;SDS011;67082;41.704;44.768;2023-06-19T01:51:49;7.32;;;2.78;;
77888;SDS011;67082;41.704;44.768;2023-06-19T01:54:18;7.63;;;3.20;;
77888;SDS011;67082;41.704;44.768;2023-06-19T01:56:46;4.30;;;3.03;;
77888;SDS011;67082;41.704;44.768;2023-06-19T01:59:14;7.57;;;3.28;;
77888;SDS011;67082;41.704;44.768;2023-06-19T02:01:42;5.47;;;3.00;;
77888;SDS011;67082;41.704;44.768;2023-06-19T02:04:10;5.45;;;2.97;;
77888;SDS011;67082;41.704;44.768;2023-06-19T02:06:38;4.35;;;2.60;;
77888;SDS011;67082;41.704;44.768;2023-06-19T02:09:07;5.10;;;2.97;;
77888;SDS011;67082;41.704;44.768;2023-06-19T02:11:38;7.28;;;3.10;;
77888;SDS011;67082;41.704;44.768;2023-06-19T02:14:07;5.63;;;2.90;;
77888;SDS011;67082;41.704;44.768;2023-06-19T02:16:38;5.13;;;2.78;;
77888;SDS011;67082;41.704;44.768;2023-06-19T02:19:08;5.20;;;3.05;;
77888;SDS011;67082;41.704;44.768;2023-06-19T02:21:39;4.82;;;2.85;;
77888;SDS011;67082;41.704;44.768;2023-06-19T02:24:07;6.60;;;2.95;;
77888;SDS011;67082;41.704;44.768;2023-06-19T02:26:35;4.15;;;2.63;;
77888;SDS011;67082;41.704;44.768;2023-06-19T02:29:04;6.72;;;2.53;;
77888;SDS011;67082;41.704;44.768;2023-06-19T02:31:32;4.28;;;2.80;;
77888;SDS011;67082;41.704;44.768;2023-06-19T02:34:00;5.35;;;2.40;;
77888;SDS011;67082;41.704;44.768;2023-06-19T02:36:29;5.40;;;2.70;;
77888;SDS011;67082;41.704;44.768;2023-06-19T02:38:57;6.75;;;2.47;;
77888;SDS011;67082;41.704;44.768;2023-06-19T02:41:26;4.15;;;2.55;;
77888;SDS011;67082;41.704;44.768;2023-06-19T02:43:54;4.70;;;2.53;;
77888;SDS011;67082;41.704;44.768;2023-06-19T02:46:23;4.97;;;2.40;;
77888;SDS011;67082;41.704;44.768;2023-06-19T02:48:52;5.20;;;3.00;;
77888;SDS011;67082;41.704;44.768;2023-06-19T02:51:22;6.72;;;2.63;;
77888;SDS011;67082;41.704;44.768;2023-06-19T02:53:50;7.80;;;2.63;;
77888;SDS011;67082;41.704;44.768;2023-06-19T02:56:18;5.45;;;2.67;;
77888;SDS011;67082;41.704;44.768;2023-06-19T02:58:46;7.53;;;2.55;;
77888;SDS011;67082;41.704;44.768;2023-06-19T03:01:15;5.25;;;2.40;;
77888;SDS011;67082;41.704;44.768;2023-06-19T03:03:44;5.15;;;2.70;;
77888;SDS011;67082;41.704;44.768;2023-06-19T03:06:14;6.88;;;2.53;;
77888;SDS011;67082;41.704;44.768;2023-06-19T03:08:42;5.70;;;2.35;;
77888;SDS011;67082;41.704;44.768;2023-06-19T03:11:10;5.75;;;2.33;;
77888;SDS011;67082;41.704;44.768;2023-06-19T03:16:15;6.65;;;2.45;;
77888;SDS011;67082;41.704;44.768;2023-06-19T03:18:43;7.53;;;2.70;;
77888;SDS011;67082;41.704;44.768;2023-06-19T03:21:16;5.95;;;2.28;;
77888;SDS011;67082;41.704;44.768;2023-06-19T03:23:47;4.72;;;2.40;;
77888;SDS011;67082;41.704;44.768;2023-06-19T03:26:20;9.15;;;2.70;;
77888;SDS011;67082;41.704;44.768;2023-06-19T03:28:49;6.35;;;2.45;;
77888;SDS011;67082;41.704;44.768;2023-06-19T03:31:18;10.25;;;2.65;;
77888;SDS011;67082;41.704;44.768;2023-06-19T03:33:47;6.70;;;2.58;;
77888;SDS011;67082;41.704;44.768;2023-06-19T03:36:16;6.15;;;2.50;;
77888;SDS011;67082;41.704;44.768;2023-06-19T03:38:49;7.82;;;2.88;;
77888;SDS011;67082;41.704;44.768;2023-06-19T03:41:20;5.22;;;2.58;;
77888;SDS011;67082;41.704;44.768;2023-06-19T03:43:48;5.70;;;2.55;;
77888;SDS011;67082;41.704;44.768;2023-06-19T03:46:18;5.95;;;2.67;;
77888;SDS011;67082;41.704;44.768;2023-06-19T03:48:46;5.78;;;2.90;;
77888;SDS011;67082;41.704;44.768;2023-06-19T03:51:14;7.15;;;2.60;;
77888;SDS011;67082;41.704;44.768;2023-06-19T03:53:42;6.32;;;2.90;;
77888;SDS011;67082;41.704;44.768;2023-06-19T03:56:11;4.88;;;2.70;;
77888;SDS011;67082;41.704;44.768;2023-06-19T03:58:39;4.78;;;2.67;;
77888;SDS011;67082;41.704;44.768;2023-06-19T04:01:07;6.40;;;2.60;;
77888;SDS011;67082;41.704;44.768;2023-06-19T04:03:35;5.93;;;3.10;;
77888;SDS011;67082;41.704;44.768;2023-06-19T04:06:07;11.98;;;3.08;;
77888;SDS011;67082;41.704;44.768;2023-06-19T04:08:38;8.63;;;2.92;;
77888;SDS011;67082;41.704;44.768;2023-06-19T04:11:10;4.50;;;2.60;;
77888;SDS011;67082;41.704;44.768;2023-06-19T04:13:39;4.07;;;2.50;;
77888;SDS011;67082;41.704;44.768;2023-06-19T04:16:07;6.10;;;2.80;;
77888;SDS011;67082;41.704;44.768;2023-06-19T04:18:35;8.02;;;2.60;;
77888;SDS011;67082;41.704;44.768;2023-06-19T04:21:04;7.43;;;3.08;;
77888;SDS011;67082;41.704;44.768;2023-06-19T04:23:32;6.97;;;2.70;;
77888;SDS011;67082;41.704;44.768;2023-06-19T04:26:01;4.45;;;2.67;;
77888;SDS011;67082;41.704;44.768;2023-06-19T04:28:29;9.50;;;3.20;;
77888;SDS011;67082;41.704;44.768;2023-06-19T04:30:58;11.13;;;4.70;;
77888;SDS011;67082;41.704;44.768;2023-06-19T04:33:29;10.60;;;5.32;;
77888;SDS011;67082;41.704;44.768;2023-06-19T04:35:58;9.55;;;3.50;;
77888;SDS011;67082;41.704;44.768;2023-06-19T04:38:26;7.50;;;3.47;;
77888;SDS011;67082;41.704;44.768;2023-06-19T04:40:54;8.82;;;2.95;;
77888;SDS011;67082;41.704;44.768;2023-06-19T04:43:25;4.78;;;2.92;;
77888;SDS011;67082;41.704;44.768;2023-06-19T04:45:53;4.75;;;2.63;;
77888;SDS011;67082;41.704;44.768;2023-06-19T04:48:21;11.55;;;4.20;;
77888;SDS011;67082;41.704;44.768;2023-06-19T04:50:53;9.40;;;3.20;;
77888;SDS011;67082;41.704;44.768;2023-06-19T04:53:23;8.93;;;3.28;;
77888;SDS011;67082;41.704;44.768;2023-06-19T04:55:52;8.10;;;3.40;;
77888;SDS011;67082;41.704;44.768;2023-06-19T04:58:21;4.97;;;3.08;;
77888;SDS011;67082;41.704;44.768;2023-06-19T05:00:50;7.97;;;2.60;;
77888;SDS011;67082;41.704;44.768;2023-06-19T05:03:20;20.17;;;3.50;;
77888;SDS011;67082;41.704;44.768;2023-06-19T05:05:49;4.22;;;2.88;;
77888;SDS011;67082;41.704;44.768;2023-06-19T05:08:20;6.43;;;2.72;;
77888;SDS011;67082;41.704;44.768;2023-06-19T05:10:50;11.55;;;3.25;;
77888;SDS011;67082;41.704;44.768;2023-06-19T05:13:19;8.82;;;2.97;;
77888;SDS011;67082;41.704;44.768;2023-06-19T05:15:47;6.15;;;3.42;;
77888;SDS011;67082;41.704;44.768;2023-06-19T05:18:16;8.27;;;2.90;;
77888;SDS011;67082;41.704;44.768;2023-06-19T05:20:46;11.68;;;3.25;;
77888;SDS011;67082;41.704;44.768;2023-06-19T05:23:14;7.53;;;3.13;;
77888;SDS011;67082;41.704;44.768;2023-06-19T05:25:42;6.68;;;3.20;;
77888;SDS011;67082;41.704;44.768;2023-06-19T05:28:13;20.58;;;4.28;;
77888;SDS011;67082;41.704;44.768;2023-06-19T05:30:41;9.48;;;4.10;;
77888;SDS011;67082;41.704;44.768;2023-06-19T05:33:09;9.68;;;3.50;;
77888;SDS011;67082;41.704;44.768;2023-06-19T05:35:43;5.78;;;2.97;;
77888;SDS011;67082;41.704;44.768;2023-06-19T05:38:18;7.80;;;3.38;;
77888;SDS011;67082;41.704;44.768;2023-06-19T05:40:51;4.40;;;2.75;;
77888;SDS011;67082;41.704;44.768;2023-06-19T05:43:20;8.10;;;2.60;;
77888;SDS011;67082;41.704;44.768;2023-06-19T05:45:49;10.52;;;3.85;;
77888;SDS011;67082;41.704;44.768;2023-06-19T05:48:18;8.00;;;3.30;;
77888;SDS011;67082;41.704;44.768;2023-06-19T05:50:48;5.82;;;3.42;;
77888;SDS011;67082;41.704;44.768;2023-06-19T05:53:16;6.72;;;2.90;;
77888;SDS011;67082;41.704;44.768;2023-06-19T05:55:44;10.55;;;3.63;;
77888;SDS011;67082;41.704;44.768;2023-06-19T05:58:13;9.30;;;3.92;;
77888;SDS011;67082;41.704;44.768;2023-06-19T06:00:41;9.38;;;3.25;;
77888;SDS011;67082;41.704;44.768;2023-06-19T06:03:09;19.17;;;3.55;;
77888;SDS011;67082;41.704;44.768;2023-06-19T06:05:38;6.00;;;3.10;;
77888;SDS011;67082;41.704;44.768;2023-06-19T06:08:06;7.53;;;3.35;;
77888;SDS011;67082;41.704;44.768;2023-06-19T06:10:34;8.25;;;3.10;;
77888;SDS011;67082;41.704;44.768;2023-06-19T06:13:02;6.35;;;3.17;;
77888;SDS011;67082;41.704;44.768;2023-06-19T06:15:31;8.05;;;3.25;;
77888;SDS011;67082;41.704;44.768;2023-06-19T06:17:59;9.60;;;3.10;;
77888;SDS011;67082;41.704;44.768;2023-06-19T06:20:28;8.25;;;3.15;;
77888;SDS011;67082;41.704;44.768;2023-06-19T06:22:55;6.38;;;2.80;;
77888;SDS011;67082;41.704;44.768;2023-06-19T06:25:24;9.52;;;3.50;;
77888;SDS011;67082;41.704;44.768;2023-06-19T06:27:52;8.40;;;3.33;;
77888;SDS011;67082;41.704;44.768;2023-06-19T06:30:21;6.38;;;3.03;;
77888;SDS011;67082;41.704;44.768;2023-06-19T06:32:49;7.40;;;3.40;;
77888;SDS011;67082;41.704;44.768;2023-06-19T06:35:17;7.80;;;3.30;;
77888;SDS011;67082;41.704;44.768;2023-06-19T06:37:46;8.48;;;3.10;;
77888;SDS011;67082;41.704;44.768;2023-06-19T06:40:17;6.70;;;2.90;;
77888;SDS011;67082;41.704;44.768;2023-06-19T06:42:45;8.95;;;3.05;;
77888;SDS011;67082;41.704;44.768;2023-06-19T06:45:17;6.57;;;3.03;;
77888;SDS011;67082;41.704;44.768;2023-06-19T06:47:45;8.68;;;3.40;;
77888;SDS011;67082;41.704;44.768;2023-06-19T06:50:14;6.38;;;3.25;;
77888;SDS011;67082;41.704;44.768;2023-06-19T06:52:42;8.25;;;3.17;;
77888;SDS011;67082;41.704;44.768;2023-06-19T06:55:11;6.18;;;3.03;;
77888;SDS011;67082;41.704;44.768;2023-06-19T06:57:39;8.00;;;2.80;;
77888;SDS011;67082;41.704;44.768;2023-06-19T07:00:07;6.03;;;2.80;;
77888;SDS011;67082;41.704;44.768;2023-06-19T07:02:38;6.22;;;2.95;;
77888;SDS011;67082;41.704;44.768;2023-06-19T07:05:08;7.25;;;2.88;;
77888;SDS011;67082;41.704;44.768;2023-06-19T07:07:37;9.63;;;3.05;;
77888;SDS011;67082;41.704;44.768;2023-06-19T07:10:06;9.25;;;3.03;;
77888;SDS011;67082;41.704;44.768;2023-06-19T07:12:34;7.32;;;2.92;;
77888;SDS011;67082;41.704;44.768;2023-06-19T07:15:04;8.93;;;2.80;;
77888;SDS011;67082;41.704;44.768;2023-06-19T07:17:32;6.20;;;2.80;;
77888;SDS011;67082;41.704;44.768;2023-06-19T07:20:00;13.68;;;3.45;;
77888;SDS011;67082;41.704;44.768;2023-06-19T07:22:30;6.43;;;3.03;;
77888;SDS011;67082;41.704;44.768;2023-06-19T07:24:58;6.82;;;3.03;;
77888;SDS011;67082;41.704;44.768;2023-06-19T07:27:26;4.65;;;2.70;;
77888;SDS011;67082;41.704;44.768;2023-06-19T07:29:56;6.03;;;2.63;;
77888;SDS011;67082;41.704;44.768;2023-06-19T07:32:24;7.30;;;2.60;;
77888;SDS011;67082;41.704;44.768;2023-06-19T07:34:53;6.90;;;2.75;;
77888;SDS011;67082;41.704;44.768;2023-06-19T07:37:21;4.80;;;2.40;;
77888;SDS011;67082;41.704;44.768;2023-06-19T07:39:50;4.72;;;2.60;;
77888;SDS011;67082;41.704;44.768;2023-06-19T07:42:19;6.03;;;2.55;;
77888;SDS011;67082;41.704;44.768;2023-06-19T07:44:47;7.80;;;2.70;;
77888;SDS011;67082;41.704;44.768;2023-06-19T07:47:16;5.22;;;2.45;;
77888;SDS011;67082;41.704;44.768;2023-06-19T07:49:48;6.72;;;2.70;;
77888;SDS011;67082;41.704;44.768;2023-06-19T07:52:16;4.80;;;2.80;;
77888;SDS011;67082;41.704;44.768;2023-06-19T07:54:49;4.57;;;2.55;;
77888;SDS011;67082;41.704;44.768;2023-06-19T07:57:22;8.38;;;2.97;;
77888;SDS011;67082;41.704;44.768;2023-06-19T07:59:53;5.63;;;2.50;;
77888;SDS011;67082;41.704;44.768;2023-06-19T08:02:23;4.97;;;2.40;;
77888;SDS011;67082;41.704;44.768;2023-06-19T08:04:52;3.67;;;2.28;;
77888;SDS011;67082;41.704;44.768;2023-06-19T08:07:20;4.78;;;2.33;;
77888;SDS011;67082;41.704;44.768;2023-06-19T08:09:48;4.78;;;2.33;;
77888;SDS011;67082;41.704;44.768;2023-06-19T08:12:31;3.58;;;2.17;;
77888;SDS011;67082;41.704;44.768;2023-06-19T08:14:59;11.27;;;2.58;;
77888;SDS011;67082;41.704;44.768;2023-06-19T08:17:31;7.22;;;2.08;;
77888;SDS011;67082;41.704;44.768;2023-06-19T08:20:00;5.57;;;2.30;;
77888;SDS011;67082;41.704;44.768;2023-06-19T08:22:30;6.43;;;2.20;;
77888;SDS011;67082;41.704;44.768;2023-06-19T08:24:59;7.15;;;2.38;;
77888;SDS011;67082;41.704;44.768;2023-06-19T08:27:28;9.77;;;2.05;;
77888;SDS011;67082;41.704;44.768;2023-06-19T08:29:57;5.18;;;2.17;;
77888;SDS011;67082;41.704;44.768;2023-06-19T08:32:25;6.05;;;2.15;;
77888;SDS011;67082;41.704;44.768;2023-06-19T08:34:55;4.88;;;2.30;;
77888;SDS011;67082;41.704;44.768;2023-06-19T08:37:23;5.80;;;1.92;;
77888;SDS011;67082;41.704;44.768;2023-06-19T08:39:51;4.63;;;2.13;;
77888;SDS011;67082;41.704;44.768;2023-06-19T08:42:19;4.93;;;1.98;;
77888;SDS011;67082;41.704;44.768;2023-06-19T08:44:47;14.02;;;2.70;;
77888;SDS011;67082;41.704;44.768;2023-06-19T08:47:16;5.97;;;1.88;;
77888;SDS011;67082;41.704;44.768;2023-06-19T08:49:45;4.72;;;1.95;;
77888;SDS011;67082;41.704;44.768;2023-06-19T08:52:13;3.72;;;2.05;;
77888;SDS011;67082;41.704;44.768;2023-06-19T08:54:42;5.03;;;2.15;;
77888;SDS011;67082;41.704;44.768;2023-06-19T08:57:13;3.00;;;1.77;;
77888;SDS011;67082;41.704;44.768;2023-06-19T08:59:48;6.95;;;2.17;;
77888;SDS011;67082;41.704;44.768;2023-06-19T09:02:17;6.28;;;1.95;;
77888;SDS011;67082;41.704;44.768;2023-06-19T09:04:46;10.52;;;2.35;;
77888;SDS011;67082;41.704;44.768;2023-06-19T09:07:14;5.10;;;1.90;;
77888;SDS011;67082;41.704;44.768;2023-06-19T09:09:45;6.55;;;2.00;;
77888;SDS011;67082;41.704;44.768;2023-06-19T09:12:16;4.95;;;1.95;;
77888;SDS011;67082;41.704;44.768;2023-06-19T09:14:54;5.30;;;2.10;;
77888;SDS011;67082;41.704;44.768;2023-06-19T09:17:23;4.38;;;1.70;;
77888;SDS011;67082;41.704;44.768;2023-06-19T09:19:54;3.72;;;2.10;;
77888;SDS011;67082;41.704;44.768;2023-06-19T09:22:23;5.45;;;2.80;;
77888;SDS011;67082;41.704;44.768;2023-06-19T09:25:00;4.70;;;1.75;;
77888;SDS011;67082;41.704;44.768;2023-06-19T09:27:33;4.60;;;1.90;;
77888;SDS011;67082;41.704;44.768;2023-06-19T09:30:01;6.43;;;2.33;;
77888;SDS011;67082;41.704;44.768;2023-06-19T09:32:31;3.50;;;2.00;;
77888;SDS011;67082;41.704;44.768;2023-06-19T09:35:00;7.53;;;2.00;;
77888;SDS011;67082;41.704;44.768;2023-06-19T09:37:32;5.75;;;2.10;;
77888;SDS011;67082;41.704;44.768;2023-06-19T09:40:03;4.35;;;1.80;;
77888;SDS011;67082;41.704;44.768;2023-06-19T09:42:39;3.80;;;1.73;;
77888;SDS011;67082;41.704;44.768;2023-06-19T09:45:17;4.75;;;3.20;;
77888;SDS011;67082;41.704;44.768;2023-06-19T09:47:48;5.40;;;2.00;;
77888;SDS011;67082;41.704;44.768;2023-06-19T09:50:22;3.55;;;1.70;;
77888;SDS011;67082;41.704;44.768;2023-06-19T09:52:54;4.70;;;2.38;;
77888;SDS011;67082;41.704;44.768;2023-06-19T09:55:23;5.05;;;2.20;;
77888;SDS011;67082;41.704;44.768;2023-06-19T09:57:57;5.28;;;1.90;;
77888;SDS011;67082;41.704;44.768;2023-06-19T10:00:26;5.43;;;2.10;;
77888;SDS011;67082;41.704;44.768;2023-06-19T10:02:58;4.43;;;2.10;;
77888;SDS011;67082;41.704;44.768;2023-06-19T10:05:29;3.80;;;2.00;;
77888;SDS011;67082;41.704;44.768;2023-06-19T10:07:58;3.78;;;2.30;;
77888;SDS011;67082;41.704;44.768;2023-06-19T10:10:28;10.32;;;2.28;;
77888;SDS011;67082;41.704;44.768;2023-06-19T10:13:14;5.85;;;2.20;;
77888;SDS011;67082;41.704;44.768;2023-06-19T10:15:44;9.82;;;2.30;;
77888;SDS011;67082;41.704;44.768;2023-06-19T10:18:16;4.97;;;2.20;;
77888;SDS011;67082;41.704;44.768;2023-06-19T10:20:45;6.90;;;2.08;;
77888;SDS011;67082;41.704;44.768;2023-06-19T10:23:19;4.07;;;1.65;;
77888;SDS011;67082;41.704;44.768;2023-06-19T10:28:31;6.38;;;2.30;;
77888;SDS011;67082;41.704;44.768;2023-06-19T10:31:01;7.93;;;2.17;;
77888;SDS011;67082;41.704;44.768;2023-06-19T10:33:32;8.80;;;2.25;;
77888;SDS011;67082;41.704;44.768;2023-06-19T10:36:13;6.05;;;2.30;;
77888;SDS011;67082;41.704;44.768;2023-06-19T10:38:43;7.47;;;2.28;;
77888;SDS011;67082;41.704;44.768;2023-06-19T10:41:19;4.55;;;2.38;;
77888;SDS011;67082;41.704;44.768;2023-06-19T10:46:34;5.63;;;1.95;;
77888;SDS011;67082;41.704;44.768;2023-06-19T10:49:07;9.43;;;2.72;;
77888;SDS011;67082;41.704;44.768;2023-06-19T10:51:38;3.85;;;2.38;;
77888;SDS011;67082;41.704;44.768;2023-06-19T10:54:10;6.70;;;2.45;;
77888;SDS011;67082;41.704;44.768;2023-06-19T10:56:39;7.18;;;2.40;;
77888;SDS011;67082;41.704;44.768;2023-06-19T10:59:07;6.28;;;2.08;;
77888;SDS011;67082;41.704;44.768;2023-06-19T11:01:38;5.15;;;2.10;;
77888;SDS011;67082;41.704;44.768;2023-06-19T11:04:08;6.38;;;2.10;;
77888;SDS011;67082;41.704;44.768;2023-06-19T11:06:38;4.40;;;2.42;;
77888;SDS011;67082;41.704;44.768;2023-06-19T11:09:09;8.77;;;2.30;;
77888;SDS011;67082;41.704;44.768;2023-06-19T11:11:43;5.05;;;2.13;;
77888;SDS011;67082;41.704;44.768;2023-06-19T11:14:16;6.38;;;2.38;;
77888;SDS011;67082;41.704;44.768;2023-06-19T11:16:45;9.52;;;2.40;;
77888;SDS011;67082;41.704;44.768;2023-06-19T11:19:18;4.85;;;2.00;;
77888;SDS011;67082;41.704;44.768;2023-06-19T11:21:51;5.68;;;2.10;;
77888;SDS011;67082;41.704;44.768;2023-06-19T11:24:22;8.50;;;2.20;;
77888;SDS011;67082;41.704;44.768;2023-06-19T11:26:51;10.25;;;2.13;;
77888;SDS011;67082;41.704;44.768;2023-06-19T11:29:24;4.57;;;1.65;;
77888;SDS011;67082;41.704;44.768;2023-06-19T11:32:03;5.13;;;1.83;;
77888;SDS011;67082;41.704;44.768;2023-06-19T11:34:37;3.17;;;1.70;;
77888;SDS011;67082;41.704;44.768;2023-06-19T11:37:17;4.75;;;1.67;;
77888;SDS011;67082;41.704;44.768;2023-06-19T11:39:48;3.03;;;1.70;;
77888;SDS011;67082;41.704;44.768;2023-06-19T11:42:18;6.32;;;2.13;;
77888;SDS011;67082;41.704;44.768;2023-06-19T11:44:53;4.32;;;1.90;;
77888;SDS011;67082;41.704;44.768;2023-06-19T11:47:22;4.20;;;1.70;;
77888;SDS011;67082;41.704;44.768;2023-06-19T11:49:51;7.40;;;2.03;;
77888;SDS011;67082;41.704;44.768;2023-06-19T11:52:19;4.97;;;1.85;;
77888;SDS011;67082;41.704;44.768;2023-06-19T11:54:47;4.78;;;2.13;;
77888;SDS011;67082;41.704;44.768;2023-06-19T11:57:15;6.53;;;2.10;;
77888;SDS011;67082;41.704;44.768;2023-06-19T11:59:43;5.90;;;1.95;;
77888;SDS011;67082;41.704;44.768;2023-06-19T12:02:12;5.05;;;1.80;;
77888;SDS011;67082;41.704;44.768;2023-06-19T12:04:40;11.13;;;2.20;;
77888;SDS011;67082;41.704;44.768;2023-06-19T12:07:08;8.38;;;2.20;;
77888;SDS011;67082;41.704;44.768;2023-06-19T12:09:37;6.93;;;2.40;;
77888;SDS011;67082;41.704;44.768;2023-06-19T12:12:08;9.57;;;2.60;;
77888;SDS011;67082;41.704;44.768;2023-06-19T12:14:36;11.90;;;2.65;;
77888;SDS011;67082;41.704;44.768;2023-06-19T12:17:05;4.80;;;2.50;;
77888;SDS011;67082;41.704;44.768;2023-06-19T12:19:33;11.52;;;2.80;;
77888;SDS011;67082;41.704;44.768;2023-06-19T12:22:03;8.27;;;3.10;;
77888;SDS011;67082;41.704;44.768;2023-06-19T12:24:31;7.72;;;3.40;;
77888;SDS011;67082;41.704;44.768;2023-06-19T12:27:00;9.27;;;3.90;;
77888;SDS011;67082;41.704;44.768;2023-06-19T12:29:28;9.07;;;3.22;;
77888;SDS011;67082;41.704;44.768;2023-06-19T12:32:01;7.90;;;2.92;;
77888;SDS011;67082;41.704;44.768;2023-06-19T12:34:30;9.07;;;2.75;;
77888;SDS011;67082;41.704;44.768;2023-06-19T12:36:58;6.82;;;3.22;;
77888;SDS011;67082;41.704;44.768;2023-06-19T12:39:27;8.65;;;3.22;;
77888;SDS011;67082;41.704;44.768;2023-06-19T12:41:55;8.43;;;3.47;;
77888;SDS011;67082;41.704;44.768;2023-06-19T12:44:23;6.95;;;3.42;;
77888;SDS011;67082;41.704;44.768;2023-06-19T12:46:52;11.00;;;3.80;;
77888;SDS011;67082;41.704;44.768;2023-06-19T12:49:21;8.00;;;3.85;;
77888;SDS011;67082;41.704;44.768;2023-06-19T12:51:49;11.32;;;3.67;;
77888;SDS011;67082;41.704;44.768;2023-06-19T12:54:19;6.60;;;2.90;;
77888;SDS011;67082;41.704;44.768;2023-06-19T12:56:48;7.70;;;2.97;;
77888;SDS011;67082;41.704;44.768;2023-06-19T12:59:18;9.10;;;2.65;;
77888;SDS011;67082;41.704;44.768;2023-06-19T13:01:46;5.43;;;2.20;;
77888;SDS011;67082;41.704;44.768;2023-06-19T13:04:15;13.30;;;2.00;;
77888;SDS011;67082;41.704;44.768;2023-06-19T13:06:43;6.05;;;1.60;;
77888;SDS011;67082;41.704;44.768;2023-06-19T13:09:11;6.18;;;2.40;;
77888;SDS011;67082;41.704;44.768;2023-06-19T13:11:41;9.07;;;2.05;;
77888;SDS011;67082;41.704;44.768;2023-06-19T13:14:10;12.05;;;2.08;;
77888;SDS011;67082;41.704;44.768;2023-06-19T13:16:38;7.88;;;2.53;;
77888;SDS011;67082;41.704;44.768;2023-06-19T13:19:14;11.15;;;2.30;;
77888;SDS011;67082;41.704;44.768;2023-06-19T13:21:43;5.63;;;1.95;;
77888;SDS011;67082;41.704;44.768;2023-06-19T13:24:12;10.77;;;2.30;;
77888;SDS011;67082;41.704;44.768;2023-06-19T13:26:40;4.22;;;1.80;;
77888;SDS011;67082;41.704;44.768;2023-06-19T13:29:09;5.80;;;1.90;;
77888;SDS011;67082;41.704;44.768;2023-06-19T13:31:37;5.72;;;1.92;;
77888;SDS011;67082;41.704;44.768;2023-06-19T13:34:06;7.72;;;2.10;;
77888;SDS011;67082;41.704;44.768;2023-06-19T13:36:34;13.88;;;2.15;;
77888;SDS011;67082;41.704;44.768;2023-06-19T13:39:04;8.13;;;1.92;;
77888;SDS011;67082;41.704;44.768;2023-06-19T13:41:32;5.93;;;1.95;;
77888;SDS011;67082;41.704;44.768;2023-06-19T13:44:00;8.63;;;2.25;;
77888;SDS011;67082;41.704;44.768;2023-06-19T13:46:29;5.25;;;1.80;;
77888;SDS011;67082;41.704;44.768;2023-06-19T13:48:59;8.10;;;2.10;;
77888;SDS011;67082;41.704;44.768;2023-06-19T13:51:29;7.82;;;2.50;;
77888;SDS011;67082;41.704;44.768;2023-06-19T13:53:57;8.40;;;2.20;;
77888;SDS011;67082;41.704;44.768;2023-06-19T13:56:25;18.10;;;10.55;;
77888;SDS011;67082;41.704;44.768;2023-06-19T13:58:53;17.52;;;10.93;;
77888;SDS011;67082;41.704;44.768;2023-06-19T14:01:22;5.13;;;2.72;;
77888;SDS011;67082;41.704;44.768;2023-06-19T14:03:50;6.88;;;4.15;;
77888;SDS011;67082;41.704;44.768;2023-06-19T14:06:20;7.68;;;2.40;;
77888;SDS011;67082;41.704;44.768;2023-06-19T14:08:48;6.55;;;2.50;;
77888;SDS011;67082;41.704;44.768;2023-06-19T14:11:17;6.43;;;2.40;;
77888;SDS011;67082;41.704;44.768;2023-06-19T14:13:46;5.78;;;2.47;;
77888;SDS011;67082;41.704;44.768;2023-06-19T14:16:15;8.55;;;2.58;;
77888;SDS011;67082;41.704;44.768;2023-06-19T14:18:44;5.93;;;2.20;;
77888;SDS011;67082;41.704;44.768;2023-06-19T14:21:12;5.43;;;2.30;;
77888;SDS011;67082;41.704;44.768;2023-06-19T14:23:41;5.28;;;1.90;;
77888;SDS011;67082;41.704;44.768;2023-06-19T14:26:12;5.38;;;2.00;;
77888;SDS011;67082;41.704;44.768;2023-06-19T14:28:40;7.72;;;2.58;;
77888;SDS011;67082;41.704;44.768;2023-06-19T14:31:09;7.25;;;2.40;;
77888;SDS011;67082;41.704;44.768;2023-06-19T14:33:37;6.57;;;2.58;;
77888;SDS011;67082;41.704;44.768;2023-06-19T14:36:06;10.20;;;2.50;;
77888;SDS011;67082;41.704;44.768;2023-06-19T14:38:36;6.93;;;2.13;;
77888;SDS011;67082;41.704;44.768;2023-06-19T14:41:05;6.25;;;2.22;;
77888;SDS011;67082;41.704;44.768;2023-06-19T14:43:35;10.25;;;2.20;;
77888;SDS011;67082;41.704;44.768;2023-06-19T14:46:03;9.82;;;2.50;;
77888;SDS011;67082;41.704;44.768;2023-06-19T14:48:33;7.68;;;2.38;;
77888;SDS011;67082;41.704;44.768;2023-06-19T14:51:01;6.05;;;2.03;;
77888;SDS011;67082;41.704;44.768;2023-06-19T14:53:32;4.43;;;1.92;;
77888;SDS011;67082;41.704;44.768;2023-06-19T14:56:00;5.68;;;1.95;;
77888;SDS011;67082;41.704;44.768;2023-06-19T14:58:28;6.60;;;1.92;;